createdAt,value
2018-03-04T00:01:31.934Z,98893.56
2018-03-04T00:03:59.381Z,98893.58
2018-03-04T00:06:26.833Z,98903.95
2018-03-04T00:08:54.305Z,98900.33
2018-03-04T00:11:21.756Z,98894.70
2018-03-04T00:13:49.449Z,98901.82
2018-03-04T00:16:16.930Z,98905.51
2018-03-04T00:18:44.385Z,98898.78
2018-03-04T00:21:11.865Z,98902.78
2018-03-04T00:23:39.313Z,98901.45
2018-03-04T00:26:06.821Z,98898.41
2018-03-04T00:28:34.274Z,98894.48
2018-03-04T00:31:01.725Z,98887.99
2018-03-04T00:33:29.194Z,98900.61
2018-03-04T00:35:56.651Z,98898.54
2018-03-04T00:38:24.134Z,98906.33
2018-03-04T00:40:51.581Z,98916.17
2018-03-04T00:43:19.034Z,98907.95
2018-03-04T00:45:46.505Z,98916.48
2018-03-04T00:48:13.962Z,98916.59
2018-03-04T00:50:41.453Z,98914.80
2018-03-04T00:53:08.915Z,98908.33
2018-03-04T00:55:36.384Z,98904.89
2018-03-04T00:58:03.856Z,98911.58
2018-03-04T01:00:31.305Z,98907.38
2018-03-04T01:02:58.809Z,98915.14
2018-03-04T01:05:26.260Z,98913.41
2018-03-04T01:07:53.713Z,98920.43
2018-03-04T01:10:21.206Z,98917.03
2018-03-04T01:12:48.665Z,98912.66
2018-03-04T01:15:16.406Z,98913.35
2018-03-04T01:17:43.873Z,98912.82
2018-03-04T01:20:11.334Z,98907.37
2018-03-04T01:22:38.830Z,98908.32
2018-03-04T01:25:06.312Z,98918.37
2018-03-04T01:27:33.924Z,98911.40
2018-03-04T01:30:01.373Z,98913.53
2018-03-04T01:32:28.822Z,98922.28
2018-03-04T01:34:56.294Z,98925.78
2018-03-04T01:37:23.754Z,98923.19
2018-03-04T01:39:51.374Z,98927.53
2018-03-04T01:42:18.825Z,98931.23
2018-03-04T01:44:46.284Z,98922.61
2018-03-04T01:47:13.762Z,98916.94
2018-03-04T01:49:41.214Z,98911.42
2018-03-04T01:52:08.838Z,98901.93
2018-03-04T01:54:36.301Z,98911.44
2018-03-04T01:57:03.753Z,98917.92
2018-03-04T01:59:31.221Z,98919.22
2018-03-04T02:01:58.700Z,98917.88
2018-03-04T02:04:26.182Z,98922.20
2018-03-04T02:06:53.633Z,98926.98
2018-03-04T02:09:21.081Z,98933.08
2018-03-04T02:11:48.553Z,98936.47
2018-03-04T02:14:15.998Z,98929.16
2018-03-04T02:16:43.488Z,98929.59
2018-03-04T02:19:10.941Z,98926.48
2018-03-04T02:21:38.389Z,98922.16
2018-03-04T02:24:05.861Z,98923.44
2018-03-04T02:26:33.333Z,98916.44
2018-03-04T02:29:01.106Z,98913.52
2018-03-04T02:31:28.551Z,98906.47
2018-03-04T02:33:56.005Z,98900.36
2018-03-04T02:36:23.481Z,98893.02
2018-03-04T02:38:50.942Z,98893.36
2018-03-04T02:41:18.640Z,98886.84
2018-03-04T02:43:46.095Z,98887.25
2018-03-04T02:46:13.550Z,98895.06
2018-03-04T02:48:41.017Z,98893.86
2018-03-04T02:51:08.506Z,98879.11
2018-03-04T02:53:36.010Z,98879.06
2018-03-04T02:56:03.457Z,98882.91
2018-03-04T02:58:30.914Z,98875.15
2018-03-04T03:00:58.384Z,98873.17
2018-03-04T03:03:25.834Z,98871.74
2018-03-04T03:05:53.336Z,98858.19
2018-03-04T03:08:20.801Z,98848.55
2018-03-04T03:10:48.249Z,98846.38
2018-03-04T03:13:15.733Z,98846.32
2018-03-04T03:15:43.189Z,98844.05
2018-03-04T03:18:10.681Z,98839.52
2018-03-04T03:20:38.158Z,98846.62
2018-03-04T03:23:05.610Z,98850.51
2018-03-04T03:25:33.081Z,98857.09
2018-03-04T03:28:00.529Z,98849.33
2018-03-04T03:30:27.997Z,98861.94
2018-03-04T03:32:55.446Z,98858.41
2018-03-04T03:35:22.926Z,98857.06
2018-03-04T03:37:50.397Z,98855.84
2018-03-04T03:40:17.853Z,98855.45
2018-03-04T03:42:45.448Z,98846.67
2018-03-04T03:45:12.901Z,98842.84
2018-03-04T03:47:40.349Z,98841.02
2018-03-04T03:50:07.852Z,98842.38
2018-03-04T03:52:35.293Z,98845.42
2018-03-04T03:55:03.006Z,98846.58
2018-03-04T03:57:30.463Z,98849.22
2018-03-04T03:59:57.909Z,98851.84
2018-03-04T04:02:25.382Z,98862.18
2018-03-04T04:04:52.834Z,98854.36
2018-03-04T04:07:20.469Z,98852.60
2018-03-04T04:09:47.916Z,98854.39
2018-03-04T04:12:15.361Z,98853.52
2018-03-04T04:14:42.866Z,98859.64
2018-03-04T04:17:10.349Z,98860.42
2018-03-04T04:19:38.329Z,98873.90
2018-03-04T04:22:05.785Z,98871.91
2018-03-04T04:24:33.237Z,98878.30
2018-03-04T04:27:00.704Z,98877.31
2018-03-04T04:29:28.154Z,98868.05
2018-03-04T04:31:55.838Z,98874.09
2018-03-04T04:34:23.317Z,98867.54
2018-03-04T04:36:50.791Z,98869.61
2018-03-04T04:39:18.331Z,98870.59
2018-03-04T04:41:45.772Z,98867.32
2018-03-04T04:44:13.422Z,98861.64
2018-03-04T04:46:40.871Z,98861.83
2018-03-04T04:49:08.334Z,98860.70
2018-03-04T04:51:35.812Z,98859.23
2018-03-04T04:54:03.258Z,98864.70
2018-03-04T04:56:30.737Z,98859.38
2018-03-04T04:58:58.189Z,98851.61
2018-03-04T05:01:25.637Z,98850.02
2018-03-04T05:03:53.110Z,98857.80
2018-03-04T05:06:20.565Z,98852.07
2018-03-04T05:08:48.525Z,98854.30
2018-03-04T05:11:15.973Z,98852.52
2018-03-04T05:13:43.438Z,98865.52
2018-03-04T05:16:10.921Z,98857.73
2018-03-04T05:18:38.373Z,98854.38
2018-03-04T05:21:06.173Z,98842.94
2018-03-04T05:23:33.634Z,98837.17
2018-03-04T05:26:01.093Z,98843.72
2018-03-04T05:28:28.561Z,98848.80
2018-03-04T05:30:56.024Z,98855.95
2018-03-04T05:33:23.494Z,98856.92
2018-03-04T05:35:50.949Z,98851.72
2018-03-04T05:38:18.432Z,98863.52
2018-03-04T05:40:45.906Z,98868.69
2018-03-04T05:43:13.369Z,98872.94
2018-03-04T05:45:40.873Z,98867.37
2018-03-04T05:48:08.313Z,98849.87
2018-03-04T05:50:35.762Z,98842.43
2018-03-04T05:53:03.229Z,98837.92
2018-03-04T05:55:30.676Z,98836.36
2018-03-04T05:57:58.313Z,98835.92
2018-03-04T06:00:25.769Z,98829.03
2018-03-04T06:02:53.218Z,98831.57
2018-03-04T06:05:20.706Z,98831.52
2018-03-04T06:07:48.161Z,98838.09
2018-03-04T06:10:15.652Z,98835.00
2018-03-04T06:12:43.101Z,98826.56
2018-03-04T06:15:10.552Z,98831.69
2018-03-04T06:17:38.020Z,98831.95
2018-03-04T06:20:05.474Z,98820.19
2018-03-04T06:22:33.089Z,98828.48
2018-03-04T06:25:00.546Z,98835.36
2018-03-04T06:27:28.002Z,98827.58
2018-03-04T06:29:55.522Z,98827.81
2018-03-04T06:32:22.947Z,98814.97
2018-03-04T06:34:50.873Z,98816.27
2018-03-04T06:37:18.325Z,98817.63
2018-03-04T06:39:45.773Z,98828.14
2018-03-04T06:42:13.253Z,98841.33
2018-03-04T06:44:40.717Z,98831.25
2018-03-04T06:47:08.322Z,98828.31
2018-03-04T06:49:35.793Z,98827.35
2018-03-04T06:52:03.239Z,98829.73
2018-03-04T06:54:30.716Z,98837.22
2018-03-04T06:56:58.169Z,98834.14
2018-03-04T06:59:25.658Z,98837.92
2018-03-04T07:01:53.114Z,98833.14
2018-03-04T07:04:20.581Z,98837.13
2018-03-04T07:06:48.063Z,98842.45
2018-03-04T07:09:15.519Z,98851.17
2018-03-04T07:11:43.005Z,98864.66
2018-03-04T07:14:10.490Z,98857.67
2018-03-04T07:16:37.961Z,98850.30
2018-03-04T07:19:05.426Z,98848.86
2018-03-04T07:21:32.885Z,98845.02
2018-03-04T07:24:00.377Z,98841.33
2018-03-04T07:26:27.838Z,98837.25
2018-03-04T07:28:55.301Z,98832.80
2018-03-04T07:31:22.789Z,98834.04
2018-03-04T07:33:50.233Z,98829.98
2018-03-04T07:36:17.714Z,98824.74
2018-03-04T07:38:45.169Z,98825.77
2018-03-04T07:41:12.640Z,98835.78
2018-03-04T07:43:40.114Z,98844.38
2018-03-04T07:46:07.576Z,98843.98
2018-03-04T07:48:35.062Z,98840.06
2018-03-04T07:51:02.521Z,98839.53
2018-03-04T07:53:29.996Z,98833.89
2018-03-04T07:55:57.465Z,98824.70
2018-03-04T07:58:24.913Z,98827.77
2018-03-04T08:00:52.402Z,98829.51
2018-03-04T08:03:19.860Z,98834.91
2018-03-04T08:05:47.320Z,98834.55
2018-03-04T08:08:14.792Z,98831.51
2018-03-04T08:10:42.245Z,98839.45
2018-03-04T08:13:10.099Z,98848.20
2018-03-04T08:15:37.550Z,98853.84
2018-03-04T08:18:05.027Z,98853.34
2018-03-04T08:20:32.509Z,98855.59
2018-03-04T08:22:59.987Z,98853.10
2018-03-04T08:25:33.351Z,98853.36
2018-03-04T08:28:12.797Z,98852.97
2018-03-04T08:30:40.574Z,98862.53
2018-03-04T08:33:08.032Z,98852.77
2018-03-04T08:35:35.493Z,98856.78
2018-03-04T08:38:03.009Z,98860.46
2018-03-04T08:40:30.459Z,98860.88
2018-03-04T08:42:58.125Z,98855.06
2018-03-04T08:45:25.601Z,98850.56
2018-03-04T08:47:53.067Z,98838.50
2018-03-04T08:50:20.545Z,98837.27
2018-03-04T08:52:48.025Z,98829.97
2018-03-04T08:55:15.712Z,98838.61
2018-03-04T08:57:43.205Z,98836.00
2018-03-04T09:00:10.692Z,98835.60
2018-03-04T09:02:38.161Z,98827.27
2018-03-04T09:05:05.611Z,98832.22
2018-03-04T09:07:33.122Z,98822.53
2018-03-04T09:10:00.591Z,98827.95
2018-03-04T09:12:28.046Z,98826.88
2018-03-04T09:14:55.521Z,98827.62
2018-03-04T09:17:22.985Z,98826.05
2018-03-04T09:19:51.321Z,98815.36
2018-03-04T09:22:18.795Z,98807.45
2018-03-04T09:24:46.240Z,98806.02
2018-03-04T09:27:13.709Z,98807.94
2018-03-04T09:29:41.221Z,98797.05
2018-03-04T09:32:09.001Z,98801.61
2018-03-04T09:34:36.454Z,98792.59
2018-03-04T09:37:03.929Z,98790.89
2018-03-04T09:39:31.418Z,98797.70
2018-03-04T09:41:58.864Z,98795.83
2018-03-04T09:44:26.357Z,98802.77
2018-03-04T09:46:53.802Z,98806.84
2018-03-04T09:49:21.525Z,98803.97
2018-03-04T09:51:49.906Z,98804.87
2018-03-04T09:54:17.365Z,98802.59
2018-03-04T09:56:44.872Z,98800.14
2018-03-04T09:59:12.325Z,98793.42
2018-03-04T10:01:39.812Z,98794.47
2018-03-04T10:04:07.286Z,98792.71
2018-03-04T10:06:34.749Z,98780.89
2018-03-04T10:09:02.377Z,98787.27
2018-03-04T10:11:29.853Z,98793.12
2018-03-04T10:13:57.304Z,98793.41
2018-03-04T10:16:24.796Z,98780.36
2018-03-04T10:18:52.265Z,98771.83
2018-03-04T10:21:19.758Z,98768.75
2018-03-04T10:23:47.225Z,98770.25
2018-03-04T10:26:14.698Z,98769.55
2018-03-04T10:28:42.185Z,98771.99
2018-03-04T10:31:09.662Z,98772.81
2018-03-04T10:33:37.429Z,98775.66
2018-03-04T10:36:04.877Z,98774.34
2018-03-04T10:38:32.337Z,98780.03
2018-03-04T10:40:59.811Z,98774.56
2018-03-04T10:43:27.279Z,98778.87
2018-03-04T10:45:54.751Z,98779.07
2018-03-04T10:48:22.423Z,98780.25
2018-03-04T10:50:49.882Z,98784.64
2018-03-04T10:53:17.366Z,98779.97
2018-03-04T10:55:44.813Z,98791.73
2018-03-04T10:58:12.297Z,98796.12
2018-03-04T11:00:48.330Z,98794.47
2018-03-04T11:03:15.897Z,98786.08
2018-03-04T11:05:43.375Z,98783.59
2018-03-04T11:08:10.835Z,98777.73
2018-03-04T11:10:38.304Z,98780.50
2018-03-04T11:13:05.781Z,98778.19
2018-03-04T11:15:33.413Z,98780.22
2018-03-04T11:18:00.873Z,98767.60
2018-03-04T11:20:28.393Z,98770.14
2018-03-04T11:22:55.857Z,98772.75
2018-03-04T11:25:23.336Z,98769.52
2018-03-04T11:27:50.937Z,98769.47
2018-03-04T11:30:18.393Z,98770.30
2018-03-04T11:32:45.841Z,98768.05
2018-03-04T11:35:13.321Z,98766.50
2018-03-04T11:37:40.773Z,98763.72
2018-03-04T11:40:08.417Z,98750.67
2018-03-04T11:42:35.865Z,98748.41
2018-03-04T11:45:03.316Z,98743.26
2018-03-04T11:47:30.841Z,98742.40
2018-03-04T11:49:58.296Z,98732.72
2018-03-04T11:52:26.069Z,98728.18
2018-03-04T11:54:53.529Z,98727.70
2018-03-04T11:57:20.994Z,98722.09
2018-03-04T11:59:48.477Z,98718.53
2018-03-04T12:02:15.930Z,98710.88
2018-03-04T12:04:43.624Z,98707.73
2018-03-04T12:07:11.087Z,98698.19
2018-03-04T12:09:38.555Z,98694.86
2018-03-04T12:12:06.026Z,98685.89
2018-03-04T12:14:33.500Z,98684.44
2018-03-04T12:17:01.205Z,98673.49
2018-03-04T12:19:28.682Z,98662.44
2018-03-04T12:21:56.135Z,98656.53
2018-03-04T12:24:23.634Z,98657.94
2018-03-04T12:26:51.085Z,98645.94
2018-03-04T12:29:18.726Z,98640.02
2018-03-04T12:31:46.173Z,98641.72
2018-03-04T12:34:13.618Z,98636.91
2018-03-04T12:36:41.145Z,98640.74
2018-03-04T12:39:08.553Z,98641.12
2018-03-04T12:41:36.041Z,98637.45
2018-03-04T12:44:03.489Z,98638.38
2018-03-04T12:46:30.938Z,98641.04
2018-03-04T12:48:58.451Z,98631.63
2018-03-04T12:51:25.902Z,98625.22
2018-03-04T12:53:53.384Z,98626.23
2018-03-04T12:56:20.850Z,98624.06
2018-03-04T12:58:48.312Z,98624.41
2018-03-04T13:01:15.844Z,98613.94
2018-03-04T13:03:43.281Z,98619.83
2018-03-04T13:06:10.850Z,98615.08
2018-03-04T13:08:38.325Z,98613.37
2018-03-04T13:11:05.777Z,98606.50
2018-03-04T13:13:33.245Z,98595.75
2018-03-04T13:16:00.693Z,98600.17
2018-03-04T13:18:28.350Z,98593.25
2018-03-04T13:20:55.806Z,98592.45
2018-03-04T13:23:23.266Z,98579.44
2018-03-04T13:25:50.737Z,98578.91
2018-03-04T13:28:18.183Z,98572.53
2018-03-04T13:30:45.994Z,98567.13
2018-03-04T13:33:13.489Z,98565.13
2018-03-04T13:35:40.932Z,98551.93
2018-03-04T13:38:08.420Z,98538.98
2018-03-04T13:40:35.899Z,98525.55
2018-03-04T13:43:03.425Z,98536.19
2018-03-04T13:45:30.878Z,98544.86
2018-03-04T13:47:58.325Z,98549.19
2018-03-04T13:50:25.793Z,98555.79
2018-03-04T13:52:53.241Z,98550.55
2018-03-04T13:55:20.732Z,98545.23
2018-03-04T13:57:48.179Z,98544.81
2018-03-04T14:00:15.634Z,98541.59
2018-03-04T14:02:43.112Z,98530.30
2018-03-04T14:05:10.606Z,98532.80
2018-03-04T14:07:38.105Z,98529.98
2018-03-04T14:10:05.660Z,98525.76
2018-03-04T14:12:33.111Z,98518.38
2018-03-04T14:15:00.591Z,98511.16
2018-03-04T14:17:28.046Z,98506.63
2018-03-04T14:19:55.551Z,98498.83
2018-03-04T14:22:23.005Z,98490.22
2018-03-04T14:24:50.489Z,98491.69
2018-03-04T14:27:17.982Z,98494.27
2018-03-04T14:29:45.430Z,98479.98
2018-03-04T14:32:13.026Z,98479.67
2018-03-04T14:34:40.485Z,98473.64
2018-03-04T14:37:07.934Z,98488.31
2018-03-04T14:39:35.406Z,98483.56
2018-03-04T14:42:02.881Z,98478.81
2018-03-04T14:44:30.687Z,98481.41
2018-03-04T14:46:58.145Z,98481.20
2018-03-04T14:49:25.620Z,98480.78
2018-03-04T14:51:53.117Z,98474.60
2018-03-04T14:54:20.569Z,98467.31
2018-03-04T14:56:48.062Z,98462.75
2018-03-04T14:59:15.552Z,98455.00
2018-03-04T15:01:42.997Z,98464.74
2018-03-04T15:04:10.491Z,98460.77
2018-03-04T15:06:37.945Z,98460.00
2018-03-04T15:09:05.668Z,98465.75
2018-03-04T15:11:33.145Z,98462.59
2018-03-04T15:14:00.594Z,98465.73
2018-03-04T15:16:28.093Z,98453.67
2018-03-04T15:18:55.553Z,98456.41
2018-03-04T15:21:23.062Z,98451.88
2018-03-04T15:23:50.534Z,98434.99
2018-03-04T15:26:17.992Z,98437.19
2018-03-04T15:28:45.463Z,98426.95
2018-03-04T15:31:12.912Z,98416.63
2018-03-04T15:33:40.394Z,98421.58
2018-03-04T15:36:07.861Z,98415.38
2018-03-04T15:38:35.310Z,98412.00
2018-03-04T15:41:02.847Z,98414.46
2018-03-04T15:43:30.303Z,98414.49
2018-03-04T15:45:57.933Z,98419.02
2018-03-04T15:48:25.434Z,98413.31
2018-03-04T15:50:52.886Z,98404.44
2018-03-04T15:53:20.361Z,98400.16
2018-03-04T15:55:47.863Z,98401.75
2018-03-04T15:58:15.588Z,98398.17
2018-03-04T16:00:43.044Z,98405.50
2018-03-04T16:03:10.678Z,98398.59
2018-03-04T16:05:38.159Z,98403.64
2018-03-04T16:08:05.609Z,98398.50
2018-03-04T16:10:33.199Z,98401.31
2018-03-04T16:13:00.654Z,98393.73
2018-03-04T16:15:28.118Z,98387.89
2018-03-04T16:17:56.391Z,98368.91
2018-03-04T16:20:23.853Z,98361.38
2018-03-04T16:22:51.718Z,98353.20
2018-03-04T16:25:19.203Z,98338.27
2018-03-04T16:27:46.669Z,98324.37
2018-03-04T16:30:14.149Z,98341.05
2018-03-04T16:32:41.610Z,98363.70
2018-03-04T16:35:09.470Z,98379.53
2018-03-04T16:37:36.952Z,98379.73
2018-03-04T16:40:04.423Z,98385.30
2018-03-04T16:42:31.923Z,98384.05
2018-03-04T16:44:59.815Z,98375.34
2018-03-04T16:47:27.293Z,98369.25
2018-03-04T16:49:54.752Z,98366.12
2018-03-04T16:52:22.399Z,98358.97
2018-03-04T16:54:49.886Z,98363.22
2018-03-04T16:57:17.370Z,98357.48
2018-03-04T16:59:45.049Z,98355.67
2018-03-04T17:02:12.514Z,98351.81
2018-03-04T17:04:39.980Z,98357.05
2018-03-04T17:07:07.469Z,98362.58
2018-03-04T17:09:34.925Z,98361.73
2018-03-04T17:12:02.751Z,98355.31
2018-03-04T17:14:30.202Z,98354.72
2018-03-04T17:16:57.657Z,98355.02
2018-03-04T17:19:25.154Z,98365.16
2018-03-04T17:21:52.619Z,98355.39
2018-03-04T17:24:20.107Z,98351.10
2018-03-04T17:26:47.583Z,98358.42
2018-03-04T17:29:15.042Z,98358.63
2018-03-04T17:31:42.523Z,98358.73
2018-03-04T17:34:09.973Z,98360.97
2018-03-04T17:36:37.761Z,98366.53
2018-03-04T17:39:05.237Z,98363.81
2018-03-04T17:41:32.693Z,98362.77
2018-03-04T17:44:00.195Z,98361.58
2018-03-04T17:46:27.649Z,98366.08
2018-03-04T17:48:55.151Z,98363.27
2018-03-04T17:51:22.607Z,98370.80
2018-03-04T17:53:50.080Z,98367.94
2018-03-04T17:56:17.566Z,98366.56
2018-03-04T17:58:45.025Z,98376.24
2018-03-04T18:01:12.533Z,98364.98
2018-03-04T18:03:39.989Z,98364.89
2018-03-04T18:06:07.464Z,98364.48
2018-03-04T18:08:34.956Z,98343.76
2018-03-04T18:11:02.405Z,98346.87
2018-03-04T18:13:29.994Z,98342.67
2018-03-04T18:15:57.458Z,98351.09
2018-03-04T18:18:24.917Z,98357.63
2018-03-04T18:20:52.422Z,98349.91
2018-03-04T18:23:19.890Z,98340.30
2018-03-04T18:25:47.546Z,98343.88
2018-03-04T18:28:15.001Z,98345.96
2018-03-04T18:30:42.466Z,98343.10
2018-03-04T18:33:09.943Z,98345.48
2018-03-04T18:35:37.405Z,98337.41
2018-03-04T18:38:04.889Z,98334.95
2018-03-04T18:40:32.361Z,98336.50
2018-03-04T18:42:59.835Z,98334.95
2018-03-04T18:45:27.318Z,98335.78
2018-03-04T18:47:54.784Z,98332.86
2018-03-04T18:50:22.569Z,98320.55
2018-03-04T18:52:50.221Z,98315.27
2018-03-04T18:55:17.694Z,98320.11
2018-03-04T18:57:45.145Z,98320.89
2018-03-04T19:00:12.838Z,98321.78
2018-03-04T19:02:40.298Z,98309.57
2018-03-04T19:05:07.753Z,98308.91
2018-03-04T19:07:35.243Z,98322.58
2018-03-04T19:10:02.743Z,98317.91
2018-03-04T19:12:30.597Z,98315.22
2018-03-04T19:14:58.053Z,98327.05
2018-03-04T19:17:25.510Z,98326.16
2018-03-04T19:19:52.989Z,98319.70
2018-03-04T19:22:20.482Z,98325.42
2018-03-04T19:24:48.154Z,98332.80
2018-03-04T19:27:15.614Z,98336.95
2018-03-04T19:29:43.954Z,98341.88
2018-03-04T19:32:11.441Z,98353.48
2018-03-04T19:34:39.720Z,98359.33
2018-03-04T19:37:07.343Z,98359.08
2018-03-04T19:39:34.817Z,98364.44
2018-03-04T19:42:02.266Z,98363.32
2018-03-04T19:44:29.748Z,98360.14
2018-03-04T19:46:58.197Z,98362.73
2018-03-04T19:49:25.690Z,98366.30
2018-03-04T19:51:53.165Z,98373.53
2018-03-04T19:54:20.617Z,98386.66
2018-03-04T19:56:48.102Z,98407.57
2018-03-04T19:59:15.559Z,98416.28
2018-03-04T20:01:43.062Z,98414.89
2018-03-04T20:04:10.543Z,98413.63
2018-03-04T20:06:38.002Z,98416.47
2018-03-04T20:09:06.329Z,98420.26
2018-03-04T20:11:33.948Z,98430.25
2018-03-04T20:14:01.561Z,98432.41
2018-03-04T20:16:29.009Z,98429.80
2018-03-04T20:18:56.477Z,98427.00
2018-03-04T20:21:23.950Z,98417.67
2018-03-04T20:23:51.430Z,98424.07
2018-03-04T20:26:19.096Z,98418.84
2018-03-04T20:28:46.558Z,98419.04
2018-03-04T20:31:14.033Z,98423.16
2018-03-04T20:33:41.528Z,98419.27
2018-03-04T20:36:08.988Z,98425.63
2018-03-04T20:38:36.981Z,98422.24
2018-03-04T20:41:04.448Z,98420.36
2018-03-04T20:43:31.900Z,98421.62
2018-03-04T20:45:59.365Z,98423.03
2018-03-04T20:48:26.830Z,98427.50
2018-03-04T20:50:54.498Z,98433.06
2018-03-04T20:53:21.947Z,98444.73
2018-03-04T20:55:49.402Z,98446.90
2018-03-04T20:58:16.879Z,98449.60
2018-03-04T21:00:44.332Z,98447.56
2018-03-04T21:03:11.826Z,98457.41
2018-03-04T21:05:39.300Z,98457.31
2018-03-04T21:08:06.750Z,98461.20
2018-03-04T21:10:34.249Z,98474.83
2018-03-04T21:13:01.701Z,98467.02
2018-03-04T21:15:29.191Z,98472.40
2018-03-04T21:17:56.641Z,98472.21
2018-03-04T21:20:24.094Z,98470.00
2018-03-04T21:22:51.574Z,98463.77
2018-03-04T21:25:19.020Z,98460.70
2018-03-04T21:27:46.525Z,98454.81
2018-03-04T21:30:13.994Z,98447.00
2018-03-04T21:32:41.590Z,98442.79
2018-03-04T21:35:09.041Z,98435.08
2018-03-04T21:37:36.494Z,98438.31
2018-03-04T21:40:03.962Z,98464.29
2018-03-04T21:42:31.424Z,98455.31
2018-03-04T21:44:59.138Z,98448.38
2018-03-04T21:47:26.637Z,98454.89
2018-03-04T21:49:54.115Z,98455.75
2018-03-04T21:52:21.587Z,98474.70
2018-03-04T21:54:49.043Z,98482.61
2018-03-04T21:57:16.518Z,98490.79
2018-03-04T21:59:43.982Z,98508.39
2018-03-04T22:02:11.464Z,98505.28
2018-03-04T22:04:38.951Z,98512.50
2018-03-04T22:07:06.406Z,98513.36
2018-03-04T22:09:34.242Z,98510.15
2018-03-04T22:12:01.690Z,98514.80
2018-03-04T22:14:29.149Z,98513.16
2018-03-04T22:16:56.629Z,98515.04
2018-03-04T22:19:24.082Z,98509.52
2018-03-04T22:21:51.569Z,98513.80
2018-03-04T22:24:19.017Z,98519.99
2018-03-04T22:26:46.492Z,98524.84
2018-03-04T22:29:13.983Z,98530.46
2018-03-04T22:31:41.429Z,98527.95
2018-03-04T22:34:08.918Z,98531.20
2018-03-04T22:36:36.377Z,98540.75
2018-03-04T22:39:03.824Z,98538.17
2018-03-04T22:41:31.298Z,98546.54
2018-03-04T22:43:58.773Z,98544.02
2018-03-04T22:46:26.265Z,98544.72
2018-03-04T22:48:53.713Z,98537.75
2018-03-04T22:51:21.162Z,98540.83
2018-03-04T22:53:48.646Z,98535.58
2018-03-04T22:56:16.097Z,98534.77
2018-03-04T22:58:43.593Z,98533.69
2018-03-04T23:01:11.041Z,98543.00
2018-03-04T23:03:38.481Z,98540.31
2018-03-04T23:06:05.972Z,98550.38
2018-03-04T23:08:33.422Z,98543.23
2018-03-04T23:11:01.081Z,98554.66
2018-03-04T23:13:28.529Z,98556.72
2018-03-04T23:15:55.977Z,98570.86
2018-03-04T23:18:23.453Z,98560.48
2018-03-04T23:20:50.910Z,98559.87
2018-03-04T23:23:18.394Z,98556.55
2018-03-04T23:25:45.861Z,98558.82
2018-03-04T23:28:13.338Z,98557.11
2018-03-04T23:30:40.821Z,98572.08
2018-03-04T23:33:08.269Z,98571.11
2018-03-04T23:35:35.994Z,98580.32
2018-03-04T23:38:03.449Z,98583.56
2018-03-04T23:40:30.899Z,98592.38
2018-03-04T23:42:58.369Z,98591.82
2018-03-04T23:45:25.837Z,98592.78
2018-03-04T23:47:53.630Z,98592.84
2018-03-04T23:50:21.078Z,98597.30
2018-03-04T23:52:48.533Z,98597.30
2018-03-04T23:55:16.024Z,98601.47
2018-03-04T23:57:43.491Z,98605.73
